Time;durP1;ratioP1;P1;durP2;ratioP2;P2;SDS_P1;SDS_P2;PMS_P1;PMS_P2;Temp;Humidity;BMP_temperature;BMP_pressure;BME280_temperature;BME280_humidity;BME280_pressure;Samples;Min_cycle;Max_cycle;Signal;HPM_P1;HPM_P2
2021/05/26 00:00:31;;;;;;;6.03;2.50;;;8.80;99.90;;;;;;5011912;28;20495;-63
2021/05/26 00:02:57;;;;;;;7.05;2.58;;;8.90;99.90;;;;;;5012211;28;20041;-62
2021/05/26 00:05:23;;;;;;;10.32;2.72;;;8.90;99.90;;;;;;5011583;28;20053;-61
2021/05/26 00:07:49;;;;;;;6.80;2.67;;;9.00;99.90;;;;;;5012393;28;20377;-61
2021/05/26 00:10:16;;;;;;;7.85;2.70;;;9.00;99.90;;;;;;5011072;28;20049;-61
2021/05/26 00:12:42;;;;;;;8.43;2.53;;;8.90;99.90;;;;;;5012359;28;20038;-62
2021/05/26 00:15:09;;;;;;;4.88;2.45;;;8.80;99.90;;;;;;5011700;28;20687;-61
2021/05/26 00:17:34;;;;;;;6.50;2.60;;;8.70;99.90;;;;;;5013221;28;20180;-61
2021/05/26 00:20:00;;;;;;;4.95;2.20;;;8.60;99.90;;;;;;5011207;28;20120;-63
2021/05/26 00:22:27;;;;;;;5.35;2.53;;;8.50;99.90;;;;;;5012097;28;20093;-61
2021/05/26 00:24:52;;;;;;;8.38;2.75;;;8.40;99.90;;;;;;5010653;28;20092;-61
2021/05/26 00:27:18;;;;;;;8.32;3.22;;;8.40;99.90;;;;;;5011858;28;20034;-63
2021/05/26 00:29:45;;;;;;;9.15;2.90;;;8.40;99.90;;;;;;5011072;28;20068;-62
2021/05/26 00:32:11;;;;;;;7.50;2.60;;;8.30;99.90;;;;;;5011149;28;20045;-61
2021/05/26 00:34:36;;;;;;;6.80;2.60;;;8.30;99.90;;;;;;4994103;28;20484;-62
2021/05/26 00:37:04;;;;;;;10.15;2.80;;;8.20;99.90;;;;;;5010457;28;20037;-62
2021/05/26 00:39:29;;;;;;;5.13;2.80;;;8.20;99.90;;;;;;5011452;28;20041;-60
2021/05/26 00:41:55;;;;;;;6.32;2.40;;;8.20;99.90;;;;;;4993451;28;20041;-61
2021/05/26 00:44:21;;;;;;;4.88;2.63;;;8.10;99.90;;;;;;5012212;28;20117;-61
2021/05/26 00:46:47;;;;;;;9.55;2.70;;;8.10;99.90;;;;;;4992761;28;20045;-61
2021/05/26 00:49:13;;;;;;;9.25;2.55;;;8.10;99.90;;;;;;5011855;28;20084;-62
2021/05/26 00:51:38;;;;;;;8.65;3.13;;;8.10;99.90;;;;;;5010598;28;20037;-61
2021/05/26 00:54:05;;;;;;;6.88;2.63;;;8.10;99.90;;;;;;5011269;28;20124;-62
2021/05/26 00:56:32;;;;;;;8.93;3.00;;;8.10;99.90;;;;;;5010794;28;20034;-61
2021/05/26 00:58:59;;;;;;;8.13;2.78;;;8.10;99.90;;;;;;5011714;28;20048;-62
2021/05/26 01:01:25;;;;;;;7.07;2.90;;;8.10;99.90;;;;;;5010792;28;20395;-62
2021/05/26 01:03:51;;;;;;;7.72;2.60;;;8.10;99.90;;;;;;5010869;28;20034;-63
2021/05/26 01:06:16;;;;;;;7.40;2.63;;;8.10;99.90;;;;;;5009694;28;20060;-61
2021/05/26 01:08:42;;;;;;;12.93;2.70;;;8.00;99.90;;;;;;5009866;28;20070;-60
2021/05/26 01:11:09;;;;;;;9.00;2.50;;;8.10;99.90;;;;;;4993118;28;20034;-62
2021/05/26 01:13:35;;;;;;;9.02;2.63;;;8.10;99.90;;;;;;5011768;28;20038;-62
2021/05/26 01:16:00;;;;;;;6.28;2.45;;;8.10;99.90;;;;;;5009986;28;20048;-60
2021/05/26 01:18:31;;;;;;;9.55;2.80;;;8.10;99.90;;;;;;5010699;28;20045;-62
2021/05/26 01:21:00;;;;;;;10.55;2.35;;;8.20;99.90;;;;;;4992418;28;20049;-63
2021/05/26 01:23:30;;;;;;;8.45;2.40;;;8.20;99.90;;;;;;5009963;28;20128;-61
2021/05/26 01:25:58;;;;;;;6.63;2.47;;;8.20;99.90;;;;;;5010089;28;20076;-60
2021/05/26 01:28:25;;;;;;;8.82;2.40;;;8.20;99.90;;;;;;5010081;28;20026;-60
2021/05/26 01:30:51;;;;;;;8.38;2.28;;;8.10;99.90;;;;;;5009965;28;20048;-61
2021/05/26 01:33:17;;;;;;;5.97;2.33;;;8.20;99.90;;;;;;5010173;28;20380;-62
2021/05/26 01:35:45;;;;;;;10.20;2.30;;;8.10;99.90;;;;;;5010725;28;20107;-61
2021/05/26 01:38:15;;;;;;;7.60;2.22;;;8.00;99.90;;;;;;5001624;28;20034;-61
2021/05/26 01:40:41;;;;;;;6.18;2.60;;;8.10;99.90;;;;;;5009517;28;20479;-61
2021/05/26 01:43:08;;;;;;;7.90;2.30;;;8.00;99.90;;;;;;5010972;28;20038;-63
2021/05/26 01:45:34;;;;;;;6.38;2.30;;;8.00;99.90;;;;;;5010344;28;20034;-60
2021/05/26 01:48:00;;;;;;;7.25;2.08;;;7.90;99.90;;;;;;5011034;28;20041;-62
2021/05/26 01:50:26;;;;;;;7.38;2.28;;;7.80;99.90;;;;;;5010392;28;20033;-62
2021/05/26 01:52:58;;;;;;;6.22;2.20;;;7.80;99.90;;;;;;5010508;28;20045;-62
2021/05/26 01:55:24;;;;;;;5.70;2.13;;;7.90;99.90;;;;;;5009628;28;20037;-62
2021/05/26 01:57:50;;;;;;;11.52;2.67;;;7.80;99.90;;;;;;5010593;28;20495;-61
2021/05/26 02:00:17;;;;;;;7.70;2.20;;;7.90;99.90;;;;;;5009246;28;20056;-61
2021/05/26 02:02:43;;;;;;;7.95;2.47;;;7.80;99.90;;;;;;5011186;28;20348;-62
2021/05/26 02:05:10;;;;;;;8.02;2.65;;;7.90;99.90;;;;;;5010341;28;20048;-61
2021/05/26 02:07:37;;;;;;;7.60;2.55;;;8.00;99.90;;;;;;5009362;28;20042;-63
2021/05/26 02:10:08;;;;;;;8.55;2.75;;;8.00;99.90;;;;;;5010003;28;20038;-62
2021/05/26 02:12:39;;;;;;;11.68;2.67;;;8.00;99.90;;;;;;5010812;28;20058;-62
2021/05/26 02:15:06;;;;;;;9.18;2.78;;;8.10;99.90;;;;;;5009940;28;20038;-62
2021/05/26 02:17:32;;;;;;;14.60;2.90;;;8.20;99.90;;;;;;5010284;28;20053;-63
2021/05/26 02:19:58;;;;;;;15.27;2.58;;;8.20;99.90;;;;;;5012795;28;20034;-61
2021/05/26 02:22:24;;;;;;;13.93;2.75;;;8.30;99.90;;;;;;5013333;28;20081;-64
2021/05/26 02:24:50;;;;;;;7.78;2.78;;;8.30;99.90;;;;;;5012798;28;20510;-61
2021/05/26 02:27:16;;;;;;;8.63;2.70;;;8.30;99.90;;;;;;5000205;28;20046;-62
2021/05/26 02:29:43;;;;;;;9.95;2.60;;;8.40;99.90;;;;;;5014221;28;20061;-61
2021/05/26 02:32:09;;;;;;;14.63;3.00;;;8.40;99.90;;;;;;5011270;28;20030;-60
2021/05/26 02:34:35;;;;;;;10.43;2.67;;;8.50;99.90;;;;;;5008115;28;20036;-63
2021/05/26 02:37:01;;;;;;;12.18;3.20;;;8.40;99.90;;;;;;5013316;28;20045;-62
2021/05/26 02:39:27;;;;;;;12.00;2.50;;;8.50;99.90;;;;;;5013337;28;20038;-61
2021/05/26 02:41:53;;;;;;;13.43;2.90;;;8.50;99.90;;;;;;5012891;28;20092;-61
2021/05/26 02:44:20;;;;;;;10.18;2.60;;;8.50;99.90;;;;;;5014651;28;20052;-63
2021/05/26 02:46:46;;;;;;;11.20;2.80;;;8.50;99.90;;;;;;5012677;28;20037;-60
2021/05/26 02:49:12;;;;;;;13.60;2.42;;;8.50;99.90;;;;;;5014266;28;20488;-62
2021/05/26 02:51:38;;;;;;;9.48;2.90;;;8.50;99.90;;;;;;5013223;28;20046;-60
2021/05/26 02:54:05;;;;;;;10.50;2.53;;;8.50;99.90;;;;;;5013114;28;20056;-62
2021/05/26 02:56:32;;;;;;;12.52;2.72;;;8.50;99.90;;;;;;5013377;28;20046;-61
2021/05/26 02:58:58;;;;;;;15.90;3.08;;;8.50;99.90;;;;;;5012931;28;20046;-63
2021/05/26 03:01:24;;;;;;;11.30;3.17;;;8.60;99.90;;;;;;5012693;28;20113;-62
2021/05/26 03:03:49;;;;;;;9.95;2.65;;;8.60;99.90;;;;;;5013719;28;20103;-62
2021/05/26 03:06:15;;;;;;;8.63;2.67;;;8.60;99.90;;;;;;5012678;28;20053;-61
2021/05/26 03:08:41;;;;;;;12.50;3.00;;;8.60;99.90;;;;;;5014380;28;20061;-61
2021/05/26 03:11:07;;;;;;;46.72;5.05;;;8.50;99.90;;;;;;5012589;28;20045;-61
2021/05/26 03:13:33;;;;;;;16.10;3.17;;;8.50;99.90;;;;;;5013882;28;20054;-61
2021/05/26 03:15:59;;;;;;;16.42;3.20;;;8.50;99.90;;;;;;5012703;28;20049;-62
2021/05/26 03:18:26;;;;;;;10.30;3.10;;;8.50;99.90;;;;;;5013271;28;20041;-63
2021/05/26 03:20:52;;;;;;;12.45;2.65;;;8.50;99.90;;;;;;5012274;28;20057;-60
2021/05/26 03:23:19;;;;;;;13.50;3.47;;;8.50;99.90;;;;;;5012142;28;20443;-61
2021/05/26 03:25:47;;;;;;;16.63;3.50;;;8.60;99.90;;;;;;5012780;28;20026;-61
2021/05/26 03:28:13;;;;;;;15.40;3.20;;;8.50;99.90;;;;;;5013022;28;20045;-61
2021/05/26 03:30:39;;;;;;;11.05;2.67;;;8.60;99.90;;;;;;5010152;28;20041;-62
2021/05/26 03:33:05;;;;;;;12.73;2.70;;;8.60;99.90;;;;;;5013076;28;20038;-61
2021/05/26 03:35:32;;;;;;;9.90;2.92;;;8.60;99.90;;;;;;5012479;28;20034;-64
2021/05/26 03:37:58;;;;;;;13.32;3.15;;;8.60;99.90;;;;;;5012133;28;20041;-61
2021/05/26 03:40:24;;;;;;;12.38;3.00;;;8.60;99.90;;;;;;5011278;28;20112;-62
2021/05/26 03:42:50;;;;;;;12.55;3.28;;;8.60;99.90;;;;;;5011731;28;20042;-63
2021/05/26 03:45:16;;;;;;;22.13;3.95;;;8.60;99.90;;;;;;5012999;28;20044;-62
2021/05/26 03:47:41;;;;;;;13.23;3.40;;;8.70;99.90;;;;;;5012408;28;20495;-63
2021/05/26 03:50:12;;;;;;;11.20;3.30;;;8.60;99.90;;;;;;5012865;28;20077;-61
2021/05/26 03:52:45;;;;;;;15.02;3.40;;;8.60;99.90;;;;;;5012304;28;20041;-61
2021/05/26 03:55:13;;;;;;;12.20;3.55;;;8.60;99.90;;;;;;5012648;28;20402;-60
2021/05/26 03:57:39;;;;;;;15.40;3.45;;;8.70;99.90;;;;;;5011705;28;20460;-62
2021/05/26 04:00:07;;;;;;;12.40;3.58;;;8.60;99.90;;;;;;5012367;28;20045;-60
2021/05/26 04:02:33;;;;;;;15.90;4.15;;;8.60;99.90;;;;;;5011327;28;20030;-61
2021/05/26 04:04:59;;;;;;;12.10;3.45;;;8.60;99.90;;;;;;5012122;28;20042;-61
2021/05/26 04:07:25;;;;;;;16.90;3.95;;;8.70;99.90;;;;;;5012010;28;20052;-61
2021/05/26 04:09:50;;;;;;;12.38;3.83;;;8.70;99.90;;;;;;5012601;28;20041;-61
2021/05/26 04:12:16;;;;;;;12.23;3.95;;;8.80;99.90;;;;;;5011593;28;20365;-62
2021/05/26 04:14:42;;;;;;;16.50;4.15;;;8.80;99.90;;;;;;5018531;28;20037;-61
2021/05/26 04:17:07;;;;;;;12.90;3.38;;;8.80;99.90;;;;;;5011535;28;20713;-62
2021/05/26 04:19:33;;;;;;;14.70;4.00;;;8.80;99.90;;;;;;5012535;28;20046;-62
2021/05/26 04:21:59;;;;;;;13.88;4.10;;;8.80;99.90;;;;;;5011333;28;20113;-59
2021/05/26 04:24:25;;;;;;;12.93;3.53;;;8.80;99.90;;;;;;5011215;28;20030;-62
2021/05/26 04:26:51;;;;;;;11.73;4.20;;;8.80;99.90;;;;;;5010764;28;20447;-61
2021/05/26 04:29:18;;;;;;;14.50;4.38;;;8.80;99.90;;;;;;5011856;28;20041;-61
2021/05/26 04:31:45;;;;;;;14.35;3.80;;;8.80;99.90;;;;;;5011691;28;20046;-61
2021/05/26 04:34:10;;;;;;;11.68;3.72;;;8.80;99.90;;;;;;4994348;28;20034;-63
2021/05/26 04:36:36;;;;;;;13.85;3.92;;;8.80;99.90;;;;;;5015645;28;20042;-61
2021/05/26 04:39:02;;;;;;;16.48;4.22;;;8.80;99.90;;;;;;5011856;28;20507;-61
2021/05/26 04:41:28;;;;;;;17.65;4.22;;;8.90;99.90;;;;;;5009879;28;20053;-60
2021/05/26 04:43:53;;;;;;;20.70;4.70;;;8.90;99.90;;;;;;5011808;28;20112;-61
2021/05/26 04:46:19;;;;;;;16.95;4.28;;;8.90;99.90;;;;;;5011050;28;20088;-61
2021/05/26 04:48:45;;;;;;;15.52;4.85;;;8.80;99.90;;;;;;5011073;28;20033;-61
2021/05/26 04:51:10;;;;;;;15.07;4.53;;;8.80;99.90;;;;;;5011089;28;20038;-63
2021/05/26 04:53:36;;;;;;;30.17;5.03;;;8.90;99.90;;;;;;5011140;28;20084;-63
2021/05/26 04:56:02;;;;;;;14.48;4.97;;;9.00;99.90;;;;;;5010850;28;20117;-64
2021/05/26 04:58:28;;;;;;;14.45;4.88;;;9.10;99.90;;;;;;5010364;28;20489;-62
2021/05/26 05:00:53;;;;;;;10.63;4.15;;;9.10;99.90;;;;;;5011566;28;20446;-60
2021/05/26 05:03:19;;;;;;;12.32;4.13;;;9.10;99.90;;;;;;5013119;28;20049;-62
2021/05/26 05:05:45;;;;;;;13.38;4.63;;;9.10;99.90;;;;;;5009517;28;20476;-62
2021/05/26 05:08:10;;;;;;;15.73;5.00;;;9.10;99.90;;;;;;5010598;28;20100;-61
2021/05/26 05:10:36;;;;;;;15.38;4.30;;;9.10;99.90;;;;;;5011448;28;20041;-62
2021/05/26 05:13:02;;;;;;;14.40;4.80;;;9.10;99.90;;;;;;5010305;28;20122;-62
2021/05/26 05:15:29;;;;;;;11.05;4.53;;;9.10;99.90;;;;;;5010895;28;20034;-63
2021/05/26 05:17:55;;;;;;;12.07;4.85;;;9.10;99.90;;;;;;5010493;28;20130;-61
2021/05/26 05:20:21;;;;;;;16.50;4.97;;;9.10;99.90;;;;;;5011298;28;20030;-61
2021/05/26 05:22:48;;;;;;;13.45;4.97;;;9.10;99.90;;;;;;5010211;28;20594;-61
2021/05/26 05:25:14;;;;;;;15.18;5.22;;;9.10;99.90;;;;;;5009975;28;20042;-63
2021/05/26 05:27:40;;;;;;;11.82;4.97;;;9.10;99.90;;;;;;5010203;28;20112;-60
2021/05/26 05:30:07;;;;;;;20.50;5.47;;;9.10;99.90;;;;;;5010615;28;20034;-60
2021/05/26 05:32:33;;;;;;;18.00;4.88;;;9.10;99.90;;;;;;5009994;28;20056;-63
2021/05/26 05:34:59;;;;;;;15.15;5.05;;;9.20;99.90;;;;;;5011143;28;20464;-62
2021/05/26 05:37:24;;;;;;;21.65;5.70;;;9.20;99.90;;;;;;5009906;28;20176;-62
2021/05/26 05:39:50;;;;;;;15.80;4.85;;;9.20;99.90;;;;;;5010330;28;20120;-60
2021/05/26 05:42:17;;;;;;;25.80;5.80;;;9.20;99.90;;;;;;5008616;28;20034;-62
2021/05/26 05:44:43;;;;;;;34.75;6.45;;;9.30;99.90;;;;;;5010911;28;20037;-61
2021/05/26 05:47:08;;;;;;;22.45;6.43;;;9.30;99.90;;;;;;5009377;28;20050;-60
2021/05/26 05:49:34;;;;;;;21.33;6.57;;;9.30;99.90;;;;;;5010460;28;20427;-60
2021/05/26 05:52:00;;;;;;;13.90;5.70;;;9.40;99.90;;;;;;5009996;28;20041;-63
2021/05/26 05:54:25;;;;;;;23.88;6.50;;;9.40;99.90;;;;;;5014003;28;20026;-60
2021/05/26 05:56:51;;;;;;;19.02;6.50;;;9.50;99.90;;;;;;5015426;28;20506;-61
2021/05/26 05:59:16;;;;;;;25.90;6.82;;;9.50;99.90;;;;;;5017367;28;20033;-62
2021/05/26 06:01:42;;;;;;;32.05;7.53;;;9.40;99.90;;;;;;5015927;28;20061;-63
2021/05/26 06:04:08;;;;;;;42.50;7.82;;;9.50;99.90;;;;;;5017333;28;20037;-61
2021/05/26 06:06:33;;;;;;;23.45;7.85;;;9.50;99.90;;;;;;5025351;28;20403;-61
2021/05/26 06:08:59;;;;;;;24.80;7.85;;;9.70;99.90;;;;;;5005995;28;20034;-62
2021/05/26 06:11:25;;;;;;;20.25;7.18;;;9.70;99.90;;;;;;5016961;28;20057;-62
2021/05/26 06:13:51;;;;;;;19.23;6.40;;;9.70;99.90;;;;;;5016764;28;20459;-62
2021/05/26 06:16:17;;;;;;;25.30;7.60;;;9.70;99.90;;;;;;5017176;28;20458;-62
2021/05/26 06:18:43;;;;;;;27.75;7.50;;;9.80;99.90;;;;;;5016272;28;20034;-61
2021/05/26 06:21:09;;;;;;;17.60;7.32;;;9.80;99.90;;;;;;5025064;28;20060;-61
2021/05/26 06:23:35;;;;;;;21.75;7.95;;;9.80;99.90;;;;;;5014908;28;20109;-62
2021/05/26 06:26:02;;;;;;;39.40;8.38;;;9.80;99.90;;;;;;5017537;28;20141;-61
2021/05/26 06:28:28;;;;;;;25.17;8.50;;;9.80;99.90;;;;;;5015140;28;20463;-62
2021/05/26 06:30:56;;;;;;;26.80;8.40;;;9.90;99.90;;;;;;5016826;28;20045;-62
2021/05/26 06:33:22;;;;;;;23.08;7.82;;;9.90;99.90;;;;;;5016447;28;20046;-63
2021/05/26 06:35:48;;;;;;;20.73;7.88;;;9.90;99.90;;;;;;5016566;28;20395;-64
2021/05/26 06:38:13;;;;;;;26.00;8.80;;;9.90;99.90;;;;;;5014782;28;20038;-61
2021/05/26 06:40:39;;;;;;;44.58;12.75;;;9.90;99.90;;;;;;5012980;28;20034;-63
2021/05/26 06:43:05;;;;;;;21.05;8.07;;;10.00;99.90;;;;;;5016409;28;20065;-60
2021/05/26 06:45:31;;;;;;;16.63;7.90;;;10.00;99.90;;;;;;5015748;28;20054;-61
2021/05/26 06:47:56;;;;;;;29.77;8.05;;;10.10;99.90;;;;;;5015860;28;20129;-60
2021/05/26 06:50:22;;;;;;;28.58;7.97;;;10.00;99.90;;;;;;5016117;28;20539;-61
2021/05/26 06:52:48;;;;;;;27.27;7.93;;;10.00;99.90;;;;;;5015307;28;20045;-61
2021/05/26 06:55:13;;;;;;;27.15;8.77;;;10.00;99.90;;;;;;5016212;28;20037;-62
2021/05/26 06:57:39;;;;;;;26.10;8.18;;;10.10;99.90;;;;;;5015863;28;20105;-61
2021/05/26 07:00:06;;;;;;;33.42;8.55;;;10.10;99.90;;;;;;5013530;28;20054;-62
2021/05/26 07:02:32;;;;;;;35.50;8.07;;;10.20;99.90;;;;;;5015128;28;20034;-61
2021/05/26 07:04:57;;;;;;;19.15;8.02;;;10.20;99.90;;;;;;5015301;28;20045;-61
2021/05/26 07:07:23;;;;;;;25.65;8.02;;;10.20;99.90;;;;;;5020782;28;20057;-62
2021/05/26 07:09:49;;;;;;;17.70;8.48;;;10.30;99.90;;;;;;5012143;28;20095;-62
2021/05/26 07:12:15;;;;;;;18.25;7.57;;;10.20;99.90;;;;;;5011465;28;20043;-60
2021/05/26 07:14:41;;;;;;;17.13;8.20;;;10.30;99.90;;;;;;5012846;28;20041;-61
2021/05/26 07:17:07;;;;;;;15.32;7.70;;;10.20;99.90;;;;;;5012484;28;20034;-61
2021/05/26 07:19:33;;;;;;;21.33;8.80;;;10.10;99.90;;;;;;4996973;28;20076;-60
2021/05/26 07:21:59;;;;;;;15.90;8.20;;;10.20;99.90;;;;;;5013472;28;20082;-62
2021/05/26 07:24:25;;;;;;;15.82;7.70;;;10.20;99.90;;;;;;5010899;28;20033;-61
2021/05/26 07:26:50;;;;;;;17.70;7.53;;;10.30;99.90;;;;;;5012263;28;20049;-61
2021/05/26 07:29:16;;;;;;;15.02;7.15;;;10.30;99.90;;;;;;5013708;28;20053;-61
2021/05/26 07:31:42;;;;;;;16.40;7.70;;;10.40;99.90;;;;;;5012685;28;20033;-62
2021/05/26 07:34:08;;;;;;;22.75;7.20;;;10.50;99.90;;;;;;5011733;28;20062;-61
2021/05/26 07:36:34;;;;;;;19.77;7.05;;;10.60;99.90;;;;;;5012794;28;20168;-61
2021/05/26 07:39:01;;;;;;;22.92;7.78;;;10.80;99.90;;;;;;5011960;28;20113;-62
2021/05/26 07:41:27;;;;;;;40.78;11.57;;;11.00;99.90;;;;;;5010350;28;20498;-63
2021/05/26 07:43:53;;;;;;;21.85;9.18;;;11.10;99.90;;;;;;5011856;28;20084;-62
2021/05/26 07:46:18;;;;;;;21.27;7.30;;;11.70;99.90;;;;;;5011613;28;20077;-60
2021/05/26 07:48:44;;;;;;;21.73;6.93;;;11.90;99.90;;;;;;5009925;28;20037;-61
2021/05/26 07:51:15;;;;;;;18.65;5.75;;;11.90;99.90;;;;;;5012978;28;20052;-62
2021/05/26 07:53:40;;;;;;;19.25;6.18;;;12.10;99.90;;;;;;5011645;28;20022;-63
2021/05/26 07:56:06;;;;;;;22.55;6.00;;;12.30;99.90;;;;;;5012177;28;20049;-62
2021/05/26 07:58:32;;;;;;;14.40;4.90;;;12.60;99.90;;;;;;5010657;28;20029;-61
2021/05/26 08:00:57;;;;;;;14.23;5.40;;;12.50;99.90;;;;;;5012227;28;20052;-61
2021/05/26 08:03:23;;;;;;;16.75;5.82;;;12.80;99.90;;;;;;5010825;28;20117;-60
2021/05/26 08:05:49;;;;;;;13.75;5.60;;;12.90;99.90;;;;;;5010826;28;20046;-61
2021/05/26 08:08:14;;;;;;;14.75;6.65;;;12.90;99.90;;;;;;5010579;28;20037;-62
2021/05/26 08:10:40;;;;;;;15.27;5.93;;;12.90;99.90;;;;;;5011283;28;20117;-63
2021/05/26 08:13:06;;;;;;;13.40;6.38;;;13.20;99.90;;;;;;5011447;28;20037;-63
2021/05/26 08:15:32;;;;;;;14.20;5.15;;;12.80;99.90;;;;;;5011456;28;20550;-64
2021/05/26 08:17:57;;;;;;;12.07;4.70;;;13.00;99.90;;;;;;5010028;28;20084;-63
2021/05/26 08:20:23;;;;;;;8.63;4.38;;;13.20;99.90;;;;;;5010857;28;20034;-61
2021/05/26 08:22:49;;;;;;;33.10;6.82;;;13.20;99.90;;;;;;5013881;28;20054;-61
2021/05/26 08:25:15;;;;;;;19.92;4.38;;;13.10;99.90;;;;;;5009952;28;20033;-62
2021/05/26 08:27:41;;;;;;;16.45;4.05;;;13.10;99.90;;;;;;5011118;28;20459;-61
2021/05/26 08:30:07;;;;;;;14.30;4.07;;;13.00;99.90;;;;;;5012701;28;20092;-61
2021/05/26 08:32:33;;;;;;;11.48;3.90;;;12.90;99.90;;;;;;5013367;28;20488;-61
2021/05/26 08:34:59;;;;;;;11.27;3.38;;;12.90;99.90;;;;;;4992094;28;20048;-63
2021/05/26 08:37:25;;;;;;;10.45;3.15;;;12.90;99.90;;;;;;5009805;28;20041;-62
2021/05/26 08:39:51;;;;;;;19.83;3.58;;;12.80;99.90;;;;;;5008962;28;20109;-62
2021/05/26 08:42:17;;;;;;;9.88;3.15;;;12.80;99.90;;;;;;4993337;28;20041;-61
2021/05/26 08:44:44;;;;;;;11.70;4.03;;;12.70;99.90;;;;;;5008419;28;20531;-63
2021/05/26 08:47:15;;;;;;;6.03;2.92;;;12.60;99.90;;;;;;5011415;28;20100;-62
2021/05/26 08:49:46;;;;;;;13.52;3.53;;;12.40;99.90;;;;;;5010624;28;20045;-63
2021/05/26 08:52:15;;;;;;;13.40;3.25;;;12.30;99.90;;;;;;5012244;28;20064;-63
2021/05/26 08:54:43;;;;;;;12.10;3.10;;;12.40;99.90;;;;;;5020879;28;20383;-60
2021/05/26 08:57:09;;;;;;;10.82;3.15;;;12.40;99.90;;;;;;5014729;28;20042;-62
2021/05/26 08:59:34;;;;;;;6.63;2.70;;;12.60;99.90;;;;;;5020581;28;20034;-61
2021/05/26 09:02:01;;;;;;;27.65;4.18;;;13.00;99.90;;;;;;5016162;28;20096;-61
2021/05/26 09:04:28;;;;;;;7.93;2.88;;;13.20;99.90;;;;;;5010679;28;20545;-62
2021/05/26 09:07:09;;;;;;;13.55;2.97;;;13.50;99.90;;;;;;5011323;28;20400;-61
2021/05/26 09:09:55;;;;;;;15.43;3.03;;;14.10;99.90;;;;;;5011047;28;20064;-60
2021/05/26 09:12:33;;;;;;;7.32;2.60;;;14.30;99.90;;;;;;5004515;28;20034;-61
2021/05/26 09:15:11;;;;;;;10.82;2.85;;;14.40;99.90;;;;;;5005774;28;20046;-62
2021/05/26 09:17:37;;;;;;;11.80;2.63;;;14.20;99.90;;;;;;5011076;28;20036;-61
2021/05/26 09:20:49;;;;;;;8.23;2.38;;;13.90;99.90;;;;;;5010821;28;20200;-61
2021/05/26 09:23:27;;;;;;;9.38;2.95;;;13.90;99.90;;;;;;5000656;28;20053;-63
2021/05/26 09:25:56;;;;;;;9.20;3.00;;;13.90;99.90;;;;;;5003207;28;20111;-60
2021/05/26 09:28:29;;;;;;;7.85;2.53;;;13.70;99.90;;;;;;5009174;28;20139;-60
2021/05/26 09:31:05;;;;;;;8.82;3.03;;;13.60;99.90;;;;;;5010532;28;20565;-61
2021/05/26 09:33:35;;;;;;;13.38;3.08;;;13.60;99.90;;;;;;5008835;28;20038;-61
2021/05/26 09:36:20;;;;;;;11.13;2.40;;;13.60;99.90;;;;;;5009198;28;20041;-62
2021/05/26 09:38:56;;;;;;;9.23;3.00;;;13.70;99.90;;;;;;5006644;28;20030;-61
2021/05/26 09:41:27;;;;;;;6.85;2.63;;;13.80;99.90;;;;;;5006013;28;20130;-60
2021/05/26 09:43:55;;;;;;;10.82;2.28;;;13.90;99.90;;;;;;5014546;28;20053;-62
2021/05/26 09:46:35;;;;;;;8.25;2.50;;;13.90;99.90;;;;;;5013466;28;20391;-62
2021/05/26 09:49:17;;;;;;;7.78;2.30;;;13.80;99.90;;;;;;5009683;28;20116;-61
2021/05/26 09:51:51;;;;;;;7.07;2.78;;;13.80;99.90;;;;;;5010675;28;20038;-61
2021/05/26 09:54:19;;;;;;;6.88;2.33;;;13.80;99.90;;;;;;5020537;28;20041;-61
2021/05/26 09:57:06;;;;;;;5.40;2.30;;;13.80;99.90;;;;;;5013910;28;20049;-62
2021/05/26 09:59:33;;;;;;;5.32;2.42;;;14.10;99.90;;;;;;5010018;28;20038;-64
2021/05/26 10:01:59;;;;;;;6.57;2.40;;;14.60;99.90;;;;;;5012934;28;20396;-62
2021/05/26 10:04:26;;;;;;;7.85;2.60;;;15.00;99.90;;;;;;5009576;28;20046;-62
2021/05/26 10:06:55;;;;;;;8.40;2.40;;;14.90;99.90;;;;;;5010611;28;20042;-61
2021/05/26 10:09:23;;;;;;;7.30;2.47;;;14.70;99.90;;;;;;5021820;28;20041;-62
2021/05/26 10:11:53;;;;;;;5.95;2.45;;;14.60;99.90;;;;;;5012359;28;20038;-63
2021/05/26 10:14:20;;;;;;;8.65;3.05;;;15.00;99.90;;;;;;5027676;28;20042;-62
2021/05/26 10:16:52;;;;;;;10.10;2.65;;;15.20;99.90;;;;;;4997482;28;20396;-62
2021/05/26 10:19:18;;;;;;;11.55;2.92;;;15.10;99.90;;;;;;5009824;28;20033;-61
2021/05/26 10:21:47;;;;;;;8.13;3.05;;;15.30;99.90;;;;;;4993087;28;20058;-61
2021/05/26 10:24:17;;;;;;;6.18;2.83;;;15.60;99.90;;;;;;5010541;28;20042;-62
2021/05/26 10:27:01;;;;;;;4.45;2.42;;;15.50;99.90;;;;;;5010485;28;20380;-63
2021/05/26 10:29:29;;;;;;;10.55;2.88;;;15.50;99.90;;;;;;5009105;28;20175;-61
2021/05/26 10:31:56;;;;;;;7.22;2.40;;;15.40;99.90;;;;;;5010802;28;20396;-61
2021/05/26 10:34:42;;;;;;;7.82;2.28;;;15.20;99.90;;;;;;5009230;28;20045;-61
2021/05/26 10:37:09;;;;;;;6.20;2.20;;;15.70;99.90;;;;;;5010443;28;20115;-63
2021/05/26 10:39:34;;;;;;;6.32;2.50;;;15.90;99.90;;;;;;5009559;28;20034;-61
2021/05/26 10:42:01;;;;;;;6.38;2.70;;;16.00;99.90;;;;;;5014437;28;20030;-62
2021/05/26 10:45:03;;;;;;;12.45;2.85;;;16.00;99.90;;;;;;5013565;28;20050;-61
2021/05/26 10:47:38;;;;;;;11.23;2.50;;;15.80;99.90;;;;;;4987557;28;20437;-61
2021/05/26 10:50:14;;;;;;;3.67;2.00;;;15.80;99.90;;;;;;5011823;28;20400;-62
2021/05/26 10:53:09;;;;;;;4.20;2.00;;;15.90;99.90;;;;;;5014215;28;20044;-61
2021/05/26 10:55:54;;;;;;;7.97;2.88;;;16.10;99.90;;;;;;5006726;28;20034;-61
2021/05/26 10:58:35;;;;;;;10.90;2.43;;;16.10;99.90;;;;;;5014271;28;20492;-62
2021/05/26 11:01:03;;;;;;;8.48;2.22;;;15.80;99.90;;;;;;5014147;28;20062;-61
2021/05/26 11:03:35;;;;;;;5.28;2.00;;;15.70;99.90;;;;;;5013590;28;20045;-61
2021/05/26 11:06:25;;;;;;;7.13;2.22;;;15.90;99.90;;;;;;5013498;28;20038;-61
2021/05/26 11:08:53;;;;;;;11.85;2.72;;;15.90;99.90;;;;;;5012295;28;20523;-64
2021/05/26 11:11:21;;;;;;;6.32;1.98;;;16.20;99.90;;;;;;5013496;28;20498;-61
2021/05/26 11:14:05;;;;;;;9.23;2.45;;;16.30;99.90;;;;;;5012934;28;20053;-61
2021/05/26 11:16:41;;;;;;;3.03;1.80;;;16.00;99.90;;;;;;5011992;28;20342;-61
2021/05/26 11:19:12;;;;;;;11.35;2.70;;;15.70;99.90;;;;;;5011597;28;20045;-62
2021/05/26 11:21:39;;;;;;;8.82;3.30;;;15.60;99.90;;;;;;4994910;28;20042;-62
2021/05/26 11:24:05;;;;;;;5.03;2.10;;;15.80;99.90;;;;;;5012246;28;20499;-62
2021/05/26 11:26:32;;;;;;;9.00;2.30;;;15.80;99.90;;;;;;5012060;28;20046;-63
2021/05/26 11:28:58;;;;;;;5.10;1.85;;;15.90;99.90;;;;;;5013131;28;20117;-62
2021/05/26 11:31:24;;;;;;;4.38;2.10;;;16.00;99.90;;;;;;5012489;28;20157;-63
2021/05/26 11:33:57;;;;;;;3.88;2.08;;;16.00;99.90;;;;;;5012859;28;20053;-63
2021/05/26 11:36:47;;;;;;;2.80;1.60;;;16.40;99.90;;;;;;5011874;28;20038;-64
2021/05/26 11:42:17;;;;;;;14.77;2.42;;;16.90;99.90;;;;;;4991500;28;20030;-62
2021/05/26 11:44:52;;;;;;;8.18;1.85;;;16.70;99.90;;;;;;5012470;28;20488;-62
2021/05/26 11:47:36;;;;;;;4.50;1.60;;;16.50;99.90;;;;;;5022808;28;20462;-62
2021/05/26 11:50:17;;;;;;;4.97;1.50;;;16.40;99.90;;;;;;5013187;28;20128;-62
2021/05/26 11:52:45;;;;;;;7.63;2.13;;;16.30;99.90;;;;;;5011714;28;20045;-61
2021/05/26 11:55:11;;;;;;;8.40;2.00;;;16.30;99.90;;;;;;5015636;28;20049;-61
2021/05/26 11:57:40;;;;;;;8.30;1.85;;;16.30;99.90;;;;;;5017758;28;20045;-62
2021/05/26 12:00:08;;;;;;;8.35;2.20;;;16.40;99.90;;;;;;5011629;28;20145;-62
2021/05/26 12:02:34;;;;;;;5.93;1.95;;;16.50;99.90;;;;;;5013077;28;20041;-61
2021/05/26 12:05:00;;;;;;;8.73;2.22;;;16.80;99.90;;;;;;5010623;28;20036;-62
2021/05/26 12:07:27;;;;;;;4.20;1.58;;;16.90;99.90;;;;;;5011997;28;20069;-63
2021/05/26 12:10:00;;;;;;;4.43;1.55;;;16.90;99.90;;;;;;4998592;28;20096;-62
2021/05/26 12:12:26;;;;;;;3.47;1.27;;;16.90;99.90;;;;;;5011317;28;20044;-61
2021/05/26 12:14:53;;;;;;;3.90;1.55;;;16.60;99.90;;;;;;5011230;28;20500;-60
2021/05/26 12:17:20;;;;;;;14.18;2.38;;;16.40;99.90;;;;;;5012390;28;20046;-62
2021/05/26 12:19:47;;;;;;;5.78;1.48;;;16.20;99.90;;;;;;5011791;28;20623;-61
2021/05/26 12:22:17;;;;;;;8.27;1.95;;;16.10;99.90;;;;;;5012094;28;20065;-62
2021/05/26 12:24:54;;;;;;;7.13;2.67;;;16.00;99.90;;;;;;5009320;28;20488;-62
2021/05/26 12:27:43;;;;;;;4.38;2.63;;;16.00;99.90;;;;;;5020664;28;20045;-62
2021/05/26 12:30:38;;;;;;;4.68;1.42;;;15.80;99.90;;;;;;4992345;28;20042;-63
2021/05/26 12:33:14;;;;;;;6.35;1.40;;;15.70;99.90;;;;;;5003471;28;20491;-62
2021/05/26 12:35:40;;;;;;;7.00;1.52;;;15.70;99.90;;;;;;5011262;28;20042;-64
2021/05/26 12:38:17;;;;;;;7.25;1.58;;;15.90;99.90;;;;;;4994206;28;20084;-61
2021/05/26 12:40:42;;;;;;;5.13;1.73;;;15.90;99.90;;;;;;5004495;28;20056;-62
2021/05/26 12:43:31;;;;;;;3.33;1.20;;;15.80;99.90;;;;;;5011945;28;20067;-62
2021/05/26 12:45:57;;;;;;;5.38;1.30;;;15.90;99.90;;;;;;5012260;28;20030;-62
2021/05/26 12:48:29;;;;;;;15.07;2.40;;;15.90;99.90;;;;;;5012126;28;20133;-63
2021/05/26 12:51:02;;;;;;;13.65;3.20;;;15.80;99.90;;;;;;5010578;28;20534;-61
2021/05/26 12:53:34;;;;;;;2.40;1.83;;;15.60;99.90;;;;;;5012261;28;20411;-61